createdAt,value
2023-02-22T00:01:57.408Z,57.30
2023-02-22T00:05:55.216Z,57.39
2023-02-22T00:09:15.668Z,56.96
2023-02-22T00:11:53.158Z,57.07
2023-02-22T00:14:30.736Z,57.25
2023-02-22T00:17:02.664Z,57.01
2023-02-22T00:19:31.304Z,57.08
2023-02-22T00:22:01.173Z,56.89
2023-02-22T00:24:29.555Z,57.06
2023-02-22T00:26:59.802Z,56.93
2023-02-22T00:29:30.484Z,56.85
2023-02-22T00:32:00.740Z,56.68
2023-02-22T00:34:27.975Z,56.88
2023-02-22T00:36:56.931Z,56.91
2023-02-22T00:39:28.266Z,57.04
2023-02-22T00:41:58.411Z,56.82
2023-02-22T00:44:26.160Z,56.89
2023-02-22T00:46:53.720Z,56.82
2023-02-22T00:49:26.340Z,57.01
2023-02-22T00:51:56.149Z,57.10
2023-02-22T00:54:25.666Z,57.33
2023-02-22T00:56:53.336Z,57.34
2023-02-22T00:59:27.335Z,57.63
2023-02-22T01:01:58.678Z,56.94
2023-02-22T01:04:27.242Z,55.48
2023-02-22T01:07:00.656Z,54.76
2023-02-22T01:09:35.237Z,54.67
2023-02-22T01:12:05.698Z,55.02
2023-02-22T01:14:36.634Z,54.94
2023-02-22T01:17:11.430Z,55.69
2023-02-22T01:19:42.609Z,55.65
2023-02-22T01:22:12.672Z,55.98
2023-02-22T01:24:50.741Z,56.35
2023-02-22T01:27:21.439Z,56.41
2023-02-22T01:29:52.084Z,56.66
2023-02-22T01:32:20.239Z,56.90
2023-02-22T01:34:47.600Z,57.05
2023-02-22T01:37:15.480Z,57.13
2023-02-22T01:39:42.591Z,57.34
2023-02-22T01:42:11.322Z,57.54
2023-02-22T01:44:40.153Z,57.49
2023-02-22T01:47:11.723Z,57.79
2023-02-22T01:49:47.822Z,57.72
2023-02-22T01:52:19.375Z,58.01
2023-02-22T01:54:51.056Z,58.37
2023-02-22T01:57:33.339Z,57.54
2023-02-22T02:00:11.593Z,55.81
2023-02-22T02:02:46.049Z,55.19
2023-02-22T02:05:18.434Z,55.44
2023-02-22T02:07:49.417Z,55.71
2023-02-22T02:10:19.768Z,56.12
2023-02-22T02:12:49.397Z,56.74
2023-02-22T02:15:32.486Z,57.16
2023-02-22T02:18:18.889Z,57.61
2023-02-22T02:20:58.883Z,58.00
2023-02-22T02:23:55.373Z,58.22
2023-02-22T02:27:03.538Z,58.58
2023-02-22T02:30:31.941Z,58.76
2023-02-22T02:33:31.867Z,58.91
2023-02-22T02:36:17.361Z,59.26
2023-02-22T02:38:55.336Z,58.06
2023-02-22T02:41:28.250Z,56.23
2023-02-22T02:44:02.211Z,55.86
2023-02-22T02:46:37.942Z,56.08
2023-02-22T02:49:24.553Z,56.40
2023-02-22T02:51:55.175Z,56.79
2023-02-22T02:54:22.595Z,57.22
2023-02-22T02:56:53.190Z,57.49
2023-02-22T02:59:28.949Z,58.02
2023-02-22T03:02:15.205Z,58.07
2023-02-22T03:05:11.375Z,58.72
2023-02-22T03:07:52.491Z,58.87
2023-02-22T03:10:30.042Z,58.96
2023-02-22T03:13:16.082Z,59.20
2023-02-22T03:16:07.307Z,58.27
2023-02-22T03:18:46.155Z,56.08
2023-02-22T03:21:37.591Z,55.88
2023-02-22T03:24:20.712Z,55.82
2023-02-22T03:26:55.252Z,56.19
2023-02-22T03:29:23.472Z,56.72
2023-02-22T03:32:01.445Z,57.37
2023-02-22T03:34:37.166Z,57.78
2023-02-22T03:37:13.827Z,58.27
2023-02-22T03:39:54.244Z,59.06
2023-02-22T03:42:26.471Z,59.68
2023-02-22T03:44:54.762Z,60.14
2023-02-22T03:47:42.845Z,61.97
2023-02-22T03:50:29.938Z,61.90
2023-02-22T03:53:05.537Z,61.06
2023-02-22T03:55:36.730Z,60.96
2023-02-22T03:58:11.837Z,61.62
2023-02-22T04:00:39.602Z,62.36
2023-02-22T04:03:09.344Z,62.90
2023-02-22T04:05:38.584Z,63.71
2023-02-22T04:08:06.609Z,64.48
2023-02-22T04:10:41.003Z,64.21
2023-02-22T04:13:14.726Z,62.50
2023-02-22T04:15:52.526Z,62.45
2023-02-22T04:18:21.281Z,62.68
2023-02-22T04:20:55.716Z,63.43
2023-02-22T04:23:34.082Z,63.92
2023-02-22T04:26:03.579Z,64.74
2023-02-22T04:28:31.545Z,64.96
2023-02-22T04:31:27.720Z,64.63
2023-02-22T04:34:22.633Z,63.34
2023-02-22T04:36:50.035Z,62.48
2023-02-22T04:39:27.547Z,63.05
2023-02-22T04:41:55.724Z,63.72
2023-02-22T04:44:26.892Z,64.13
2023-02-22T04:46:57.652Z,64.78
2023-02-22T04:49:25.574Z,65.77
2023-02-22T04:51:54.618Z,65.60
2023-02-22T04:54:25.883Z,63.82
2023-02-22T04:56:56.235Z,62.99
2023-02-22T04:59:25.681Z,63.32
2023-02-22T05:02:16.099Z,63.63
2023-02-22T05:04:50.919Z,64.55
2023-02-22T05:07:21.346Z,64.80
2023-02-22T05:09:53.405Z,66.03
2023-02-22T05:12:21.468Z,65.71
2023-02-22T05:14:53.288Z,64.20
2023-02-22T05:17:21.425Z,63.46
2023-02-22T05:19:48.791Z,63.82
2023-02-22T05:22:26.505Z,64.15
2023-02-22T05:24:54.076Z,64.89
2023-02-22T05:27:34.131Z,65.16
2023-02-22T05:30:04.531Z,66.04
2023-02-22T05:32:33.317Z,65.62
2023-02-22T05:35:03.250Z,64.09
2023-02-22T05:37:35.633Z,63.38
2023-02-22T05:40:03.554Z,63.29
2023-02-22T05:42:34.141Z,64.07
2023-02-22T05:45:11.712Z,64.50
2023-02-22T05:47:41.779Z,64.61
2023-02-22T05:50:18.114Z,65.68
2023-02-22T05:52:48.792Z,65.67
2023-02-22T05:55:18.578Z,63.89
2023-02-22T05:57:48.231Z,63.27
2023-02-22T06:00:20.342Z,63.41
2023-02-22T06:02:55.394Z,63.56
2023-02-22T06:05:29.237Z,64.19
2023-02-22T06:08:03.361Z,64.77
2023-02-22T06:10:34.302Z,65.27
2023-02-22T06:13:21.794Z,65.02
2023-02-22T06:15:49.171Z,63.34
2023-02-22T06:18:32.250Z,63.16
2023-02-22T06:21:04.699Z,63.60
2023-02-22T06:23:35.053Z,64.05
2023-02-22T06:26:06.677Z,64.46
2023-02-22T06:28:39.820Z,64.70
2023-02-22T06:31:18.142Z,65.56
2023-02-22T06:33:48.092Z,65.23
2023-02-22T06:36:17.713Z,63.55
2023-02-22T06:38:44.922Z,62.64
2023-02-22T06:41:18.340Z,62.90
2023-02-22T06:43:53.592Z,63.51
2023-02-22T06:46:25.471Z,63.72
2023-02-22T06:48:53.141Z,64.04
2023-02-22T06:51:20.412Z,64.53
2023-02-22T06:53:50.365Z,64.29
2023-02-22T06:56:49.075Z,62.43
2023-02-22T06:59:46.660Z,62.18
2023-02-22T07:02:23.029Z,62.13
2023-02-22T07:04:50.401Z,62.69
2023-02-22T07:07:22.841Z,63.24
2023-02-22T07:09:52.890Z,63.81
2023-02-22T07:12:21.504Z,64.20
2023-02-22T07:14:48.768Z,63.08
2023-02-22T07:17:16.136Z,61.43
2023-02-22T07:19:43.202Z,60.37
2023-02-22T07:22:10.409Z,60.50
2023-02-22T07:24:43.705Z,60.61
2023-02-22T07:27:13.669Z,61.05
2023-02-22T07:29:45.116Z,61.75
2023-02-22T07:32:13.720Z,62.16
2023-02-22T07:34:42.944Z,62.22
2023-02-22T07:37:10.345Z,63.13
2023-02-22T07:39:38.050Z,62.89
2023-02-22T07:42:07.913Z,60.89
2023-02-22T07:44:37.906Z,60.13
2023-02-22T07:47:08.976Z,59.07
2023-02-22T07:49:37.071Z,58.17
2023-02-22T07:52:04.105Z,58.43
2023-02-22T07:54:33.771Z,59.04
2023-02-22T07:57:06.699Z,59.17
2023-02-22T07:59:33.972Z,59.79
2023-02-22T08:02:03.457Z,60.22
2023-02-22T08:04:35.449Z,60.35
2023-02-22T08:07:06.181Z,60.40
2023-02-22T08:09:33.780Z,59.84
2023-02-22T08:12:04.483Z,57.91
2023-02-22T08:14:44.902Z,56.74
2023-02-22T08:17:12.582Z,56.88
2023-02-22T08:19:40.360Z,56.51
2023-02-22T08:22:10.192Z,57.23
2023-02-22T08:24:44.674Z,57.20
2023-02-22T08:27:14.388Z,57.79
2023-02-22T08:29:41.752Z,58.30
2023-02-22T08:32:08.888Z,58.53
2023-02-22T08:34:39.384Z,58.13
2023-02-22T08:37:12.189Z,58.84
2023-02-22T08:39:39.640Z,57.86
2023-02-22T08:42:09.118Z,57.80
2023-02-22T08:44:39.533Z,57.07
2023-02-22T08:47:10.154Z,57.56
2023-02-22T08:49:37.620Z,57.68
2023-02-22T08:52:05.364Z,57.08
2023-02-22T08:54:32.686Z,56.26
2023-02-22T08:57:02.762Z,54.68
2023-02-22T08:59:30.294Z,54.17
2023-02-22T09:01:57.552Z,51.76
2023-02-22T09:04:25.304Z,50.48
2023-02-22T09:06:57.640Z,50.17
2023-02-22T09:09:27.392Z,49.90
2023-02-22T09:11:54.731Z,49.30
2023-02-22T09:14:22.084Z,50.14
2023-02-22T09:16:49.730Z,50.94
2023-02-22T09:19:17.386Z,50.45
2023-02-22T09:21:45.921Z,49.10
2023-02-22T09:24:13.133Z,47.66
2023-02-22T09:26:47.351Z,47.37
2023-02-22T09:29:25.009Z,47.25
2023-02-22T09:31:56.463Z,46.53
2023-02-22T09:34:29.844Z,46.86
2023-02-22T09:36:57.734Z,48.43
2023-02-22T09:39:29.514Z,46.29
2023-02-22T09:42:06.012Z,45.93
2023-02-22T09:44:42.580Z,45.64
2023-02-22T09:47:19.598Z,46.72
2023-02-22T09:50:15.692Z,46.03
2023-02-22T09:53:04.411Z,46.32
2023-02-22T09:55:36.905Z,45.27
2023-02-22T09:58:10.443Z,45.70
2023-02-22T10:00:53.953Z,46.38
2023-02-22T10:03:25.630Z,45.42
2023-02-22T10:06:25.128Z,45.62
2023-02-22T10:08:56.566Z,43.66
2023-02-22T10:11:52.398Z,42.80
2023-02-22T10:14:28.145Z,44.18
2023-02-22T10:17:36.272Z,40.71
2023-02-22T10:20:22.200Z,39.79
2023-02-22T10:22:52.949Z,38.06
2023-02-22T10:25:25.213Z,38.52
2023-02-22T10:27:57.337Z,40.70
2023-02-22T10:30:33.696Z,41.63
2023-02-22T10:33:22.361Z,42.90
2023-02-22T10:35:50.068Z,44.02
2023-02-22T10:38:20.549Z,44.66
2023-02-22T10:40:59.866Z,44.96
2023-02-22T10:43:27.119Z,46.03
2023-02-22T10:46:06.950Z,45.97
2023-02-22T10:48:47.937Z,47.49
2023-02-22T10:51:15.317Z,48.10
2023-02-22T10:53:45.381Z,47.81
2023-02-22T10:56:20.785Z,48.18
2023-02-22T10:58:52.448Z,48.57
2023-02-22T11:01:27.670Z,49.20
2023-02-22T11:03:59.142Z,49.28
2023-02-22T11:06:26.256Z,49.82
2023-02-22T11:09:08.580Z,49.41
2023-02-22T11:11:36.418Z,50.02
2023-02-22T11:14:06.637Z,50.89
2023-02-22T11:16:53.721Z,51.26
2023-02-22T11:19:24.082Z,51.24
2023-02-22T11:21:59.869Z,51.42
2023-02-22T11:24:30.273Z,51.75
2023-02-22T11:27:01.528Z,51.92
2023-02-22T11:29:37.243Z,51.99
2023-02-22T11:32:26.624Z,52.62
2023-02-22T11:35:08.438Z,53.17
2023-02-22T11:37:38.401Z,52.64
2023-02-22T11:40:17.898Z,52.56
2023-02-22T11:42:48.235Z,52.06
2023-02-22T11:45:24.970Z,51.84
2023-02-22T11:47:55.509Z,50.95
2023-02-22T11:50:30.745Z,51.60
2023-02-22T11:53:25.696Z,51.94
2023-02-22T11:57:17.008Z,51.83
2023-02-22T12:00:40.349Z,51.84
2023-02-22T12:04:10.022Z,51.91
2023-02-22T12:07:08.329Z,50.19
2023-02-22T12:10:36.152Z,50.63
2023-02-22T12:13:57.999Z,51.14
2023-02-22T12:17:36.093Z,50.54
2023-02-22T12:21:07.952Z,50.39
2023-02-22T12:24:29.482Z,50.81
2023-02-22T12:27:24.615Z,49.89
2023-02-22T12:30:09.186Z,49.02
2023-02-22T12:32:53.380Z,49.15
2023-02-22T12:36:10.273Z,47.64
2023-02-22T12:38:49.272Z,48.36
2023-02-22T12:41:34.588Z,47.28
2023-02-22T12:44:04.532Z,45.91
2023-02-22T12:47:10.626Z,44.57
2023-02-22T12:50:20.217Z,44.61
2023-02-22T12:53:20.152Z,44.60
2023-02-22T12:56:07.387Z,44.75
2023-02-22T12:59:09.363Z,44.78
2023-02-22T13:02:20.324Z,46.69
2023-02-22T13:04:55.798Z,46.20
2023-02-22T13:08:36.107Z,46.45
2023-02-22T13:12:09.539Z,47.87
2023-02-22T13:15:23.050Z,46.24
2023-02-22T13:18:48.820Z,46.95
2023-02-22T13:22:05.538Z,47.26
2023-02-22T13:25:09.865Z,46.84
2023-02-22T13:27:58.409Z,47.11
2023-02-22T13:30:50.169Z,47.68
2023-02-22T13:34:15.111Z,47.38
2023-02-22T13:37:13.240Z,48.01
2023-02-22T13:40:20.058Z,47.13
2023-02-22T13:43:22.087Z,47.22
2023-02-22T13:46:05.371Z,47.28
2023-02-22T13:48:49.779Z,47.47
2023-02-22T13:51:56.714Z,47.66
2023-02-22T13:54:30.026Z,47.51
2023-02-22T13:56:57.430Z,46.97
2023-02-22T13:59:36.408Z,47.82
2023-02-22T14:02:08.098Z,48.41
2023-02-22T14:04:51.652Z,47.85
2023-02-22T14:07:29.710Z,47.85
2023-02-22T14:10:46.956Z,48.76
2023-02-22T14:13:22.659Z,48.31
2023-02-22T14:16:22.239Z,48.45
2023-02-22T14:19:08.288Z,48.65
2023-02-22T14:22:04.464Z,49.24
2023-02-22T14:25:04.834Z,48.86
2023-02-22T14:27:45.251Z,49.20
2023-02-22T14:30:26.176Z,49.19
2023-02-22T14:32:53.521Z,49.63
2023-02-22T14:35:49.880Z,49.18
2023-02-22T14:38:21.146Z,49.52
2023-02-22T14:40:48.593Z,50.00
2023-02-22T14:43:20.006Z,49.69
2023-02-22T14:45:53.763Z,50.22
2023-02-22T14:48:39.797Z,50.88
2023-02-22T14:52:03.970Z,50.99
2023-02-22T14:55:04.530Z,51.69
2023-02-22T14:58:18.812Z,52.00
2023-02-22T15:00:52.716Z,52.15
2023-02-22T15:03:32.736Z,52.67
2023-02-22T15:06:23.419Z,52.96
2023-02-22T15:09:12.077Z,53.40
2023-02-22T15:11:52.144Z,53.50
2023-02-22T15:14:26.845Z,53.69
2023-02-22T15:17:18.213Z,53.95
2023-02-22T15:19:50.919Z,54.10
2023-02-22T15:22:40.614Z,54.27
2023-02-22T15:25:44.146Z,54.42
2023-02-22T15:28:14.333Z,54.59
2023-02-22T15:30:51.550Z,54.87
2023-02-22T15:33:24.468Z,54.86
2023-02-22T15:36:02.474Z,55.04
2023-02-22T15:38:35.152Z,55.17
2023-02-22T15:41:08.506Z,55.32
2023-02-22T15:44:08.058Z,55.42
2023-02-22T15:47:08.166Z,55.71
2023-02-22T15:49:38.065Z,55.54
2023-02-22T15:52:45.789Z,55.51
2023-02-22T15:55:44.243Z,56.06
2023-02-22T15:58:25.482Z,56.03
2023-02-22T16:01:09.126Z,56.05
2023-02-22T16:04:06.347Z,56.31
2023-02-22T16:06:38.379Z,56.60
2023-02-22T16:09:12.436Z,56.27
2023-02-22T16:11:46.225Z,56.46
2023-02-22T16:14:40.652Z,56.63
2023-02-22T16:18:01.357Z,57.04
2023-02-22T16:20:30.244Z,56.92
2023-02-22T16:23:00.256Z,56.95
2023-02-22T16:25:32.926Z,57.37
2023-02-22T16:28:26.297Z,57.64
2023-02-22T16:30:59.831Z,57.44
2023-02-22T16:33:32.146Z,57.54
2023-02-22T16:36:11.780Z,57.52
2023-02-22T16:38:45.181Z,57.59
2023-02-22T16:41:20.806Z,57.49
2023-02-22T16:43:51.301Z,57.75
2023-02-22T16:46:21.839Z,57.66
2023-02-22T16:48:52.409Z,57.84
2023-02-22T16:51:39.699Z,57.81
2023-02-22T16:54:24.056Z,57.72
2023-02-22T16:57:41.636Z,57.91
2023-02-22T17:02:45.469Z,58.36
2023-02-22T17:05:38.308Z,58.32
2023-02-22T17:08:20.735Z,58.31
2023-02-22T17:11:00.825Z,58.26
2023-02-22T17:13:29.653Z,58.67
2023-02-22T17:15:59.571Z,59.00
2023-02-22T17:18:34.139Z,58.79
2023-02-22T17:21:21.749Z,56.76
2023-02-22T17:24:05.279Z,56.13
2023-02-22T17:26:40.417Z,56.01
2023-02-22T17:29:24.967Z,56.22
2023-02-22T17:32:25.310Z,56.37
2023-02-22T17:34:52.699Z,56.76
2023-02-22T17:37:27.290Z,56.79
2023-02-22T17:40:08.104Z,56.87
2023-02-22T17:42:38.717Z,57.32
2023-02-22T17:45:21.043Z,57.59
2023-02-22T17:48:08.720Z,57.95
2023-02-22T17:50:52.704Z,58.28
2023-02-22T17:53:34.288Z,58.41
2023-02-22T17:56:08.857Z,58.40
2023-02-22T17:58:41.106Z,58.26
2023-02-22T18:01:25.089Z,58.36
2023-02-22T18:03:55.680Z,58.31
2023-02-22T18:06:25.229Z,58.24
2023-02-22T18:08:59.291Z,58.64
2023-02-22T18:11:44.253Z,58.64
2023-02-22T18:14:16.783Z,58.76
2023-02-22T18:16:48.619Z,58.84
2023-02-22T18:20:11.682Z,59.20
2023-02-22T18:22:42.696Z,58.30
2023-02-22T18:25:25.518Z,56.65
2023-02-22T18:28:00.296Z,55.72
2023-02-22T18:30:27.346Z,56.38
2023-02-22T19:07:26.492Z,58.74
2023-02-22T19:09:53.973Z,58.72
2023-02-22T19:12:21.926Z,58.66
2023-02-22T19:14:52.231Z,58.95
2023-02-22T19:17:32.598Z,58.97
2023-02-22T19:19:59.978Z,59.35
2023-02-22T19:22:28.392Z,59.05
2023-02-22T19:25:01.416Z,57.25
2023-02-22T19:27:34.142Z,56.27
2023-02-22T19:30:01.380Z,56.32
2023-02-22T19:32:33.596Z,56.60
2023-02-22T19:35:06.776Z,56.79
2023-02-22T19:37:36.592Z,56.78
2023-02-22T19:40:09.099Z,57.14
2023-02-22T19:42:40.876Z,57.36
2023-02-22T19:45:08.394Z,57.85
2023-02-22T19:47:36.260Z,57.96
2023-02-22T19:50:05.232Z,58.30
2023-02-22T19:52:33.128Z,58.49
2023-02-22T19:55:00.307Z,58.49
2023-02-22T19:57:30.140Z,58.72
2023-02-22T20:00:00.278Z,59.10
2023-02-22T20:02:38.096Z,59.26
2023-02-22T20:05:18.259Z,59.15
2023-02-22T20:07:46.931Z,59.30
2023-02-22T20:10:15.224Z,59.72
2023-02-22T20:12:45.889Z,60.20
2023-02-22T20:15:30.408Z,60.07
2023-02-22T20:17:59.645Z,58.64
2023-02-22T20:20:30.838Z,57.33
2023-02-22T20:23:01.581Z,58.08
2023-02-22T20:25:35.752Z,58.78
2023-02-22T20:28:02.937Z,59.32
2023-02-22T20:30:37.494Z,59.85
2023-02-22T20:33:06.205Z,60.14
2023-02-22T20:35:37.919Z,60.57
2023-02-22T20:38:05.982Z,60.74
2023-02-22T20:40:56.935Z,61.00
2023-02-22T20:43:24.563Z,61.48
2023-02-22T20:46:12.250Z,60.86
2023-02-22T20:48:42.515Z,58.89
2023-02-22T20:51:14.000Z,58.62
2023-02-22T20:53:44.944Z,58.33
2023-02-22T20:56:19.978Z,58.46
2023-02-22T20:58:50.528Z,58.57
2023-02-22T21:01:22.595Z,59.31
2023-02-22T21:03:50.350Z,59.55
2023-02-22T21:06:22.007Z,59.77
2023-02-22T21:08:54.305Z,60.29
2023-02-22T21:11:29.030Z,60.99
2023-02-22T21:14:00.946Z,61.61
2023-02-22T21:17:04.678Z,61.27
2023-02-22T21:20:11.191Z,59.10
2023-02-22T21:22:52.739Z,59.04
2023-02-22T21:25:30.771Z,58.83
2023-02-22T21:28:04.501Z,59.41
2023-02-22T21:30:34.776Z,60.12
2023-02-22T21:33:15.749Z,60.27
2023-02-22T21:35:44.140Z,60.75
2023-02-22T21:38:14.538Z,60.54
2023-02-22T21:40:42.039Z,61.08
2023-02-22T21:43:11.832Z,61.61
2023-02-22T21:45:42.223Z,62.31
2023-02-22T21:48:12.973Z,61.62
2023-02-22T21:51:13.985Z,59.32
2023-02-22T21:53:49.416Z,59.17
2023-02-22T21:56:23.906Z,59.07
2023-02-22T21:59:02.035Z,59.98
2023-02-22T22:01:37.348Z,60.49
2023-02-22T22:04:05.175Z,60.99
2023-02-22T22:06:34.847Z,61.48
2023-02-22T22:09:04.506Z,61.65
2023-02-22T22:11:31.703Z,62.86
2023-02-22T22:14:00.394Z,62.41
2023-02-22T22:16:33.869Z,60.53
2023-02-22T22:19:10.229Z,60.06
2023-02-22T22:21:37.868Z,60.02
2023-02-22T22:24:07.261Z,60.27
2023-02-22T22:26:34.569Z,60.66
2023-02-22T22:29:05.386Z,61.09
2023-02-22T22:31:35.425Z,61.72
2023-02-22T22:34:02.558Z,62.42
2023-02-22T22:36:37.679Z,63.04
2023-02-22T22:39:13.086Z,62.15
2023-02-22T22:41:51.949Z,60.00
2023-02-22T22:44:22.500Z,59.75
2023-02-22T22:47:01.391Z,59.84
2023-02-22T22:50:01.507Z,60.18
2023-02-22T22:52:35.348Z,60.27
2023-02-22T22:55:10.229Z,60.65
2023-02-22T22:57:44.445Z,60.91
2023-02-22T23:00:54.111Z,61.04
2023-02-22T23:04:07.898Z,61.53
2023-02-22T23:06:50.631Z,61.75
2023-02-22T23:09:37.514Z,60.21
2023-02-22T23:12:16.846Z,58.27
2023-02-22T23:14:59.151Z,58.44
2023-02-22T23:17:42.488Z,58.66
2023-02-22T23:20:13.473Z,59.34
2023-02-22T23:22:49.420Z,60.12
2023-02-22T23:25:20.131Z,60.72
2023-02-22T23:27:50.855Z,61.69
2023-02-22T23:30:43.674Z,62.17
2023-02-22T23:33:21.582Z,62.22
2023-02-22T23:35:59.093Z,62.05
2023-02-22T23:38:48.386Z,60.17
2023-02-22T23:41:49.822Z,59.56
2023-02-22T23:44:40.754Z,59.67
2023-02-22T23:47:53.727Z,60.05
2023-02-22T23:50:25.572Z,60.83
2023-02-22T23:53:03.713Z,61.12
2023-02-22T23:55:32.802Z,61.77
2023-02-22T23:58:03.766Z,62.20
